createdAt,value
2018-12-07T00:01:06.494Z,42.58
2018-12-07T00:03:35.901Z,42.36
2018-12-07T00:06:05.350Z,42.30
2018-12-07T00:08:34.757Z,42.43
2018-12-07T00:11:04.189Z,42.58
2018-12-07T00:13:34.062Z,42.23
2018-12-07T00:16:03.499Z,42.15
2018-12-07T00:18:32.900Z,42.05
2018-12-07T00:21:02.332Z,41.98
2018-12-07T00:23:31.737Z,42.23
2018-12-07T00:26:01.156Z,41.98
2018-12-07T00:28:30.561Z,42.23
2018-12-07T00:30:59.987Z,42.43
2018-12-07T00:33:29.403Z,42.75
2018-12-07T00:35:58.834Z,42.42
2018-12-07T00:38:28.274Z,42.58
2018-12-07T00:40:57.734Z,42.00
2018-12-07T00:43:27.150Z,42.38
2018-12-07T00:45:56.567Z,42.64
2018-12-07T00:48:25.982Z,42.20
2018-12-07T00:50:55.385Z,42.71
2018-12-07T00:53:24.789Z,42.40
2018-12-07T00:55:54.179Z,42.25
2018-12-07T00:58:23.592Z,42.16
2018-12-07T01:00:53.014Z,42.26
2018-12-07T01:03:22.425Z,42.39
2018-12-07T01:05:51.840Z,42.25
2018-12-07T01:08:21.261Z,42.74
2018-12-07T01:10:50.673Z,42.27
2018-12-07T01:13:20.077Z,42.53
2018-12-07T01:15:49.481Z,42.57
2018-12-07T01:18:18.885Z,42.00
2018-12-07T01:20:48.280Z,42.47
2018-12-07T01:23:17.676Z,42.67
2018-12-07T01:25:47.092Z,42.65
2018-12-07T01:28:16.530Z,42.28
2018-12-07T01:30:45.947Z,42.50
2018-12-07T01:33:15.364Z,42.70
2018-12-07T01:35:44.775Z,42.73
2018-12-07T01:38:14.238Z,42.45
2018-12-07T01:40:43.641Z,42.75
2018-12-07T01:43:13.081Z,42.34
2018-12-07T01:45:42.472Z,42.73
2018-12-07T01:48:11.892Z,42.48
2018-12-07T01:50:41.389Z,42.56
2018-12-07T01:53:10.801Z,42.70
2018-12-07T01:55:40.221Z,42.47
2018-12-07T01:58:09.634Z,42.74
2018-12-07T02:00:39.070Z,42.79
2018-12-07T02:03:08.549Z,42.57
2018-12-07T02:05:37.961Z,42.36
2018-12-07T02:10:41.893Z,42.98
2018-12-07T02:13:11.396Z,42.58
2018-12-07T02:15:40.811Z,42.67
2018-12-07T02:18:10.209Z,42.64
2018-12-07T02:20:39.644Z,42.91
2018-12-07T02:23:09.053Z,42.79
2018-12-07T02:25:38.480Z,42.69
2018-12-07T02:28:07.888Z,42.48
2018-12-07T02:30:37.421Z,42.61
2018-12-07T02:33:07.913Z,42.85
2018-12-07T02:35:37.326Z,42.68
2018-12-07T02:38:06.733Z,42.65
2018-12-07T02:40:36.150Z,42.47
2018-12-07T02:43:05.562Z,42.62
2018-12-07T02:45:34.974Z,42.66
2018-12-07T02:48:04.393Z,42.88
2018-12-07T02:50:33.949Z,42.46
2018-12-07T02:53:03.365Z,42.59
2018-12-07T02:55:32.781Z,42.94
2018-12-07T02:58:02.765Z,43.02
2018-12-07T03:00:32.222Z,43.09
2018-12-07T03:03:01.641Z,42.78
2018-12-07T03:05:31.041Z,42.77
2018-12-07T03:08:00.466Z,42.63
2018-12-07T03:10:29.877Z,42.82
2018-12-07T03:12:59.302Z,42.60
2018-12-07T03:15:28.697Z,42.92
2018-12-07T03:17:58.137Z,43.06
2018-12-07T03:20:27.552Z,42.97
2018-12-07T03:22:56.969Z,42.70
2018-12-07T03:25:26.373Z,43.14
2018-12-07T03:27:55.812Z,43.09
2018-12-07T03:30:25.214Z,42.61
2018-12-07T03:32:54.657Z,42.93
2018-12-07T03:35:24.057Z,42.91
2018-12-07T03:37:53.503Z,42.82
2018-12-07T03:40:22.964Z,42.68
2018-12-07T03:42:52.589Z,42.74
2018-12-07T03:45:21.993Z,42.84
2018-12-07T03:47:52.256Z,42.72
2018-12-07T03:50:21.769Z,42.82
2018-12-07T03:52:51.674Z,42.53
2018-12-07T03:55:21.144Z,42.75
2018-12-07T03:57:50.593Z,42.15
2018-12-07T04:00:19.998Z,42.25
2018-12-07T04:02:49.426Z,41.96
2018-12-07T04:05:19.959Z,41.86
2018-12-07T04:07:49.430Z,41.59
2018-12-07T04:10:18.849Z,41.59
2018-12-07T04:12:48.305Z,41.60
2018-12-07T04:15:17.737Z,41.55
2018-12-07T04:17:47.385Z,41.99
2018-12-07T04:20:16.806Z,41.54
2018-12-07T04:22:46.205Z,41.86
2018-12-07T04:25:15.794Z,41.71
2018-12-07T04:27:47.266Z,41.58
2018-12-07T04:30:25.427Z,41.85
2018-12-07T04:32:54.961Z,41.51
2018-12-07T04:35:24.359Z,41.90
2018-12-07T04:37:53.780Z,41.77
2018-12-07T04:40:23.181Z,42.04
2018-12-07T04:42:52.578Z,42.22
2018-12-07T04:45:21.993Z,42.11
2018-12-07T04:47:52.281Z,41.99
2018-12-07T04:50:21.685Z,41.85
2018-12-07T04:52:51.077Z,41.98
2018-12-07T04:55:20.489Z,41.79
2018-12-07T04:57:50.013Z,41.83
2018-12-07T05:00:19.477Z,41.79
2018-12-07T05:02:48.882Z,41.94
2018-12-07T05:05:18.303Z,41.94
2018-12-07T05:07:47.719Z,41.77
2018-12-07T05:10:17.177Z,42.06
2018-12-07T05:12:46.580Z,41.64
2018-12-07T05:15:15.975Z,42.27
2018-12-07T05:17:45.405Z,41.76
2018-12-07T05:20:14.831Z,42.27
2018-12-07T05:22:44.266Z,42.05
2018-12-07T05:25:14.617Z,41.67
2018-12-07T05:27:44.053Z,41.89
2018-12-07T05:30:13.448Z,41.78
2018-12-07T05:32:42.921Z,41.80
2018-12-07T05:35:12.323Z,41.67
2018-12-07T05:37:41.779Z,41.83
2018-12-07T05:40:11.184Z,41.81
2018-12-07T05:42:40.605Z,41.52
2018-12-07T05:45:10.032Z,41.77
2018-12-07T05:47:40.494Z,41.34
2018-12-07T05:50:09.909Z,42.15
2018-12-07T05:52:39.353Z,41.73
2018-12-07T05:55:08.765Z,42.10
2018-12-07T05:57:38.185Z,42.16
2018-12-07T06:00:08.977Z,41.51
2018-12-07T06:02:38.417Z,42.05
2018-12-07T06:05:08.960Z,42.17
2018-12-07T06:07:38.385Z,41.95
2018-12-07T06:10:07.789Z,41.68
2018-12-07T06:12:37.229Z,40.59
2018-12-07T06:15:06.885Z,40.19
2018-12-07T06:17:37.084Z,39.21
2018-12-07T06:20:06.821Z,38.68
2018-12-07T06:22:36.235Z,38.81
2018-12-07T06:25:06.227Z,38.94
2018-12-07T06:27:35.733Z,38.95
2018-12-07T06:30:05.737Z,39.03
2018-12-07T06:32:36.343Z,39.46
2018-12-07T06:35:09.590Z,39.04
2018-12-07T06:37:38.988Z,39.61
2018-12-07T06:40:09.069Z,39.45
2018-12-07T06:42:38.481Z,39.71
2018-12-07T06:45:08.012Z,39.42
2018-12-07T06:47:37.479Z,39.42
2018-12-07T06:50:09.289Z,39.83
2018-12-07T06:52:38.712Z,40.01
2018-12-07T06:55:08.164Z,40.00
2018-12-07T06:57:37.678Z,39.64
2018-12-07T07:00:12.181Z,39.60
2018-12-07T07:02:41.585Z,39.48
2018-12-07T07:05:11.221Z,39.84
2018-12-07T07:07:40.634Z,39.92
2018-12-07T07:10:18.861Z,40.00
2018-12-07T07:12:48.281Z,39.58
2018-12-07T07:15:17.696Z,39.73
2018-12-07T07:17:47.098Z,39.77
2018-12-07T07:20:16.576Z,40.03
2018-12-07T07:22:46.001Z,39.73
2018-12-07T07:25:15.401Z,40.11
2018-12-07T07:27:44.809Z,39.88
2018-12-07T07:30:14.364Z,39.84
2018-12-07T07:32:44.401Z,39.86
2018-12-07T07:35:13.813Z,39.96
2018-12-07T07:37:44.376Z,39.72
2018-12-07T07:40:13.771Z,40.21
2018-12-07T07:42:43.273Z,39.92
2018-12-07T07:45:12.661Z,39.68
2018-12-07T07:47:42.080Z,39.88
2018-12-07T07:50:11.477Z,40.05
2018-12-07T07:52:40.873Z,39.68
2018-12-07T07:55:10.276Z,39.86
2018-12-07T07:57:39.706Z,39.64
2018-12-07T08:00:09.102Z,39.82
2018-12-07T08:02:38.510Z,39.56
2018-12-07T08:05:07.920Z,39.79
2018-12-07T08:07:37.326Z,39.41
2018-12-07T08:10:06.740Z,39.82
2018-12-07T08:12:36.185Z,39.69
2018-12-07T08:15:06.075Z,39.88
2018-12-07T08:17:36.464Z,39.61
2018-12-07T08:20:06.324Z,40.07
2018-12-07T08:22:36.903Z,39.86
2018-12-07T08:25:06.756Z,39.64
2018-12-07T08:27:36.202Z,39.81
2018-12-07T08:30:07.993Z,39.76
2018-12-07T08:32:37.509Z,40.25
2018-12-07T08:35:07.388Z,39.58
2018-12-07T08:37:36.848Z,39.97
2018-12-07T08:40:07.985Z,39.59
2018-12-07T08:42:37.437Z,39.52
2018-12-07T08:45:08.220Z,39.60
2018-12-07T08:47:39.384Z,40.16
2018-12-07T08:50:09.125Z,40.02
2018-12-07T08:52:38.548Z,39.92
2018-12-07T08:55:07.977Z,39.78
2018-12-07T08:57:37.385Z,40.08
2018-12-07T09:00:08.682Z,40.13
2018-12-07T09:02:38.106Z,39.91
2018-12-07T09:05:07.577Z,39.68
2018-12-07T09:07:37.578Z,40.15
2018-12-07T09:10:07.208Z,40.00
2018-12-07T09:12:36.616Z,39.81
2018-12-07T09:15:06.153Z,39.40
2018-12-07T09:17:35.557Z,39.67
2018-12-07T09:20:06.412Z,40.11
2018-12-07T09:22:35.828Z,39.98
2018-12-07T09:25:05.537Z,39.70
2018-12-07T09:27:34.957Z,39.79
2018-12-07T09:30:04.855Z,40.23
2018-12-07T09:32:34.274Z,40.07
2018-12-07T09:35:03.778Z,39.93
2018-12-07T09:37:33.181Z,39.55
2018-12-07T09:40:02.760Z,39.89
2018-12-07T09:42:32.157Z,40.09
2018-12-07T09:45:01.701Z,39.55
2018-12-07T09:47:31.148Z,40.20
2018-12-07T09:50:00.576Z,40.20
2018-12-07T09:52:30.026Z,39.89
2018-12-07T09:54:59.457Z,39.93
2018-12-07T09:57:28.940Z,39.76
2018-12-07T09:59:58.344Z,40.31
2018-12-07T10:02:27.821Z,40.00
2018-12-07T10:04:57.221Z,40.43
2018-12-07T10:07:26.662Z,40.04
2018-12-07T10:09:56.073Z,39.81
2018-12-07T10:12:25.538Z,40.01
2018-12-07T10:14:54.957Z,39.88
2018-12-07T10:17:25.117Z,40.33
2018-12-07T10:19:54.518Z,39.95
2018-12-07T10:22:23.948Z,39.87
2018-12-07T10:24:53.352Z,39.91
2018-12-07T10:27:22.789Z,40.00
2018-12-07T10:29:52.196Z,39.98
2018-12-07T10:32:21.616Z,40.14
2018-12-07T10:34:51.033Z,39.97
2018-12-07T10:37:20.485Z,39.60
2018-12-07T10:39:49.905Z,40.40
2018-12-07T10:42:19.329Z,40.00
2018-12-07T10:44:48.725Z,40.25
2018-12-07T10:47:18.155Z,39.84
2018-12-07T10:49:47.541Z,40.07
2018-12-07T10:52:16.951Z,40.15
2018-12-07T10:54:46.373Z,40.22
2018-12-07T10:57:15.777Z,39.95
2018-12-07T10:59:46.891Z,39.99
2018-12-07T11:02:21.802Z,40.42
2018-12-07T11:04:56.373Z,40.01
2018-12-07T11:07:30.946Z,39.96
2018-12-07T11:10:05.539Z,40.18
2018-12-07T11:12:40.009Z,39.77
2018-12-07T11:15:14.543Z,40.09
2018-12-07T11:17:49.061Z,40.02
2018-12-07T11:20:23.441Z,39.70
2018-12-07T11:22:58.069Z,39.98
2018-12-07T11:25:33.661Z,40.21
2018-12-07T11:28:08.153Z,39.96
2018-12-07T11:30:42.725Z,40.27
2018-12-07T11:33:52.161Z,40.02
2018-12-07T11:36:21.596Z,39.74
2018-12-07T11:38:51.023Z,40.03
2018-12-07T11:41:20.467Z,39.58
2018-12-07T11:43:51.934Z,39.70
2018-12-07T11:46:21.372Z,39.78
2018-12-07T11:48:50.784Z,39.83
2018-12-07T11:51:20.224Z,40.13
2018-12-07T11:53:49.694Z,39.76
2018-12-07T11:56:19.418Z,39.92
2018-12-07T11:58:48.828Z,40.40
2018-12-07T12:01:18.285Z,40.03
2018-12-07T12:03:47.740Z,39.83
2018-12-07T12:06:17.185Z,39.84
2018-12-07T12:08:46.605Z,39.82
2018-12-07T12:11:18.097Z,40.02
2018-12-07T12:13:47.530Z,40.02
2018-12-07T12:16:17.001Z,40.20
2018-12-07T12:18:46.401Z,40.01
2018-12-07T12:21:15.826Z,40.46
2018-12-07T12:23:45.252Z,39.96
2018-12-07T12:26:14.692Z,40.01
2018-12-07T12:28:44.096Z,40.10
2018-12-07T12:31:13.537Z,40.12
2018-12-07T12:33:42.973Z,39.81
2018-12-07T12:36:17.037Z,40.47
2018-12-07T12:38:43.833Z,39.85
2018-12-07T12:41:13.277Z,40.00
2018-12-07T12:43:42.689Z,39.86
2018-12-07T12:46:12.122Z,40.25
2018-12-07T12:48:41.576Z,39.95
2018-12-07T12:51:10.972Z,39.97
2018-12-07T12:53:40.399Z,40.21
2018-12-07T12:56:09.814Z,40.27
2018-12-07T12:58:39.216Z,40.08
2018-12-07T13:01:08.644Z,40.13
2018-12-07T13:03:38.057Z,40.07
2018-12-07T13:06:07.486Z,40.37
2018-12-07T13:08:38.017Z,40.69
2018-12-07T13:11:07.441Z,40.25
2018-12-07T13:13:36.884Z,40.30
2018-12-07T13:16:07.253Z,40.26
2018-12-07T13:18:36.692Z,39.93
2018-12-07T13:21:06.219Z,40.35
2018-12-07T13:23:35.640Z,40.32
2018-12-07T13:26:05.072Z,40.59
2018-12-07T13:28:34.525Z,40.14
2018-12-07T13:31:03.933Z,39.88
2018-12-07T13:33:33.381Z,40.01
2018-12-07T13:36:02.835Z,39.70
2018-12-07T13:38:32.569Z,39.86
2018-12-07T13:41:02.057Z,40.13
2018-12-07T13:43:31.581Z,40.18
2018-12-07T13:46:01.286Z,40.30
2018-12-07T13:48:30.905Z,40.11
2018-12-07T13:51:00.420Z,40.48
2018-12-07T13:53:30.330Z,40.40
2018-12-07T13:55:59.956Z,40.83
2018-12-07T13:58:29.416Z,40.62
2018-12-07T14:00:59.116Z,40.18
2018-12-07T14:03:28.755Z,40.65
2018-12-07T14:05:59.433Z,40.63
2018-12-07T14:08:29.085Z,40.48
2018-12-07T14:10:59.036Z,41.06
2018-12-07T14:13:28.715Z,40.85
2018-12-07T14:15:58.675Z,40.65
2018-12-07T14:18:28.831Z,41.05
2018-12-07T14:20:58.383Z,40.80
2018-12-07T14:23:27.931Z,40.87
2018-12-07T14:25:57.455Z,41.45
2018-12-07T14:28:27.411Z,41.43
2018-12-07T14:30:57.495Z,41.57
2018-12-07T14:33:27.257Z,41.53
2018-12-07T14:35:56.879Z,41.42
2018-12-07T14:38:26.408Z,41.72
2018-12-07T14:40:55.918Z,41.52
2018-12-07T14:43:25.699Z,41.82
2018-12-07T14:45:55.383Z,42.02
2018-12-07T14:48:25.095Z,42.38
2018-12-07T14:50:56.385Z,42.30
2018-12-07T14:53:25.874Z,42.77
2018-12-07T14:55:55.424Z,42.64
2018-12-07T14:58:24.976Z,42.76
2018-12-07T15:00:55.621Z,42.41
2018-12-07T15:03:25.294Z,42.56
2018-12-07T15:05:54.937Z,42.90
2018-12-07T15:08:24.894Z,42.73
2018-12-07T15:10:54.408Z,42.71
2018-12-07T15:13:24.294Z,42.60
2018-12-07T15:15:53.801Z,43.07
2018-12-07T15:18:23.380Z,42.64
2018-12-07T15:20:52.933Z,42.99
2018-12-07T15:23:22.540Z,42.46
2018-12-07T15:25:58.482Z,42.50
2018-12-07T15:28:28.038Z,42.65
2018-12-07T15:30:57.436Z,42.68
2018-12-07T15:33:27.223Z,42.52
2018-12-07T15:35:56.762Z,42.47
2018-12-07T15:38:26.401Z,42.25
2018-12-07T15:40:55.843Z,42.50
2018-12-07T15:43:25.598Z,42.43
2018-12-07T15:45:57.604Z,42.62
2018-12-07T15:48:27.256Z,42.31
2018-12-07T15:50:56.814Z,42.49
2018-12-07T15:53:26.508Z,42.44
2018-12-07T15:55:56.159Z,42.38
2018-12-07T15:58:25.955Z,42.70
2018-12-07T16:00:55.542Z,42.31
2018-12-07T16:03:25.213Z,42.54
2018-12-07T16:05:54.747Z,42.47
2018-12-07T16:08:25.045Z,42.48
2018-12-07T16:10:55.010Z,42.56
2018-12-07T16:13:24.738Z,42.01
2018-12-07T16:15:54.294Z,42.60
2018-12-07T16:18:23.778Z,42.43
2018-12-07T16:20:53.318Z,42.95
2018-12-07T16:23:24.260Z,42.69
2018-12-07T16:25:54.324Z,42.23
2018-12-07T16:28:24.212Z,42.61
2018-12-07T16:30:53.787Z,42.17
2018-12-07T16:33:23.532Z,42.15
2018-12-07T16:35:53.093Z,42.54
2018-12-07T16:38:22.647Z,42.09
2018-12-07T16:40:52.137Z,41.89
2018-12-07T16:43:22.677Z,41.98
2018-12-07T16:45:52.437Z,41.80
2018-12-07T16:48:23.252Z,42.08
2018-12-07T16:50:53.272Z,41.82
2018-12-07T16:53:22.923Z,41.59
2018-12-07T16:55:52.711Z,41.75
2018-12-07T16:58:22.437Z,42.02
2018-12-07T17:00:51.969Z,42.18
2018-12-07T17:03:21.382Z,41.92
2018-12-07T17:05:50.813Z,41.92
2018-12-07T17:08:20.796Z,41.66
2018-12-07T17:10:50.350Z,41.62
2018-12-07T17:13:19.870Z,42.06
2018-12-07T17:15:50.515Z,41.43
2018-12-07T17:18:20.043Z,41.82
2018-12-07T17:20:49.561Z,41.84
2018-12-07T17:23:19.120Z,41.02
2018-12-07T17:25:48.749Z,41.21
2018-12-07T17:28:18.374Z,41.25
2018-12-07T17:30:47.942Z,41.45
2018-12-07T17:33:17.515Z,41.37
2018-12-07T17:35:47.094Z,41.01
2018-12-07T17:38:16.777Z,40.97
2018-12-07T17:40:46.443Z,41.14
2018-12-07T17:43:16.190Z,41.54
2018-12-07T17:45:45.787Z,41.04
2018-12-07T17:48:15.320Z,41.16
2018-12-07T17:50:44.919Z,41.37
2018-12-07T17:53:15.428Z,41.69
2018-12-07T17:55:46.084Z,41.72
2018-12-07T17:58:15.759Z,41.05
2018-12-07T18:00:45.297Z,40.99
2018-12-07T18:03:14.761Z,41.15
2018-12-07T18:05:44.328Z,41.19
2018-12-07T18:08:13.888Z,41.53
2018-12-07T18:10:43.408Z,41.65
2018-12-07T18:13:13.160Z,41.51
2018-12-07T18:15:43.016Z,41.37
2018-12-07T18:18:13.605Z,41.39
2018-12-07T18:20:43.181Z,41.50
2018-12-07T18:23:13.109Z,41.53
2018-12-07T18:25:43.426Z,41.34
2018-12-07T18:28:12.899Z,41.56
2018-12-07T18:30:42.366Z,41.16
2018-12-07T18:33:11.801Z,41.38
2018-12-07T18:35:41.318Z,41.46
2018-12-07T18:38:11.253Z,41.39
2018-12-07T18:40:41.058Z,42.13
2018-12-07T18:43:12.429Z,42.33
2018-12-07T18:45:42.288Z,42.26
2018-12-07T18:48:12.101Z,42.42
2018-12-07T18:50:41.989Z,42.41
2018-12-07T18:53:11.719Z,42.21
2018-12-07T18:55:41.405Z,42.37
2018-12-07T18:58:11.069Z,42.09
2018-12-07T19:00:41.053Z,42.63
2018-12-07T19:03:10.900Z,41.96
2018-12-07T19:05:42.357Z,42.50
2018-12-07T19:08:13.441Z,42.14
2018-12-07T19:10:44.251Z,41.71
2018-12-07T19:13:14.402Z,41.76
2018-12-07T19:15:44.225Z,42.29
2018-12-07T19:18:15.398Z,41.96
2018-12-07T19:20:46.146Z,42.36
2018-12-07T19:23:15.758Z,41.99
2018-12-07T19:25:45.527Z,42.12
2018-12-07T19:28:15.477Z,42.17
2018-12-07T19:30:45.563Z,42.02
2018-12-07T19:33:15.513Z,42.12
2018-12-07T19:35:45.556Z,42.02
2018-12-07T19:38:15.390Z,42.06
2018-12-07T19:40:45.142Z,42.08
2018-12-07T19:43:15.025Z,41.99
2018-12-07T19:45:44.999Z,42.33
2018-12-07T19:48:15.074Z,42.14
2018-12-07T19:50:45.278Z,42.54
2018-12-07T19:53:16.686Z,41.93
2018-12-07T19:55:46.288Z,41.76
2018-12-07T19:58:15.882Z,42.36
2018-12-07T20:00:45.391Z,42.10
2018-12-07T20:03:14.842Z,42.25
2018-12-07T20:05:44.305Z,42.59
2018-12-07T20:08:14.113Z,41.96
2018-12-07T20:10:44.024Z,42.10
2018-12-07T20:13:13.804Z,42.25
2018-12-07T20:15:43.674Z,42.19
2018-12-07T20:18:14.862Z,43.02
2018-12-07T20:20:44.638Z,42.86
2018-12-07T20:23:14.575Z,42.86
2018-12-07T20:25:44.255Z,43.28
2018-12-07T20:28:14.341Z,42.63
2018-12-07T20:30:44.065Z,42.76
2018-12-07T20:33:14.203Z,42.49
2018-12-07T20:35:43.759Z,42.69
2018-12-07T20:38:13.356Z,42.60
2018-12-07T20:40:44.463Z,43.12
2018-12-07T20:43:14.713Z,42.68
2018-12-07T20:45:44.990Z,42.92
2018-12-07T20:48:14.690Z,42.83
2018-12-07T20:50:44.217Z,43.08
2018-12-07T20:53:13.905Z,43.07
2018-12-07T20:55:45.796Z,43.07
2018-12-07T20:58:15.428Z,43.44
2018-12-07T21:00:45.325Z,43.55
2018-12-07T21:03:15.298Z,43.03
2018-12-07T21:06:10.078Z,43.09
2018-12-07T21:09:00.482Z,42.95
2018-12-07T21:11:40.629Z,42.85
2018-12-07T21:14:32.131Z,42.73
2018-12-07T21:17:12.343Z,42.80
2018-12-07T21:19:47.452Z,43.07
2018-12-07T21:22:17.761Z,42.61
2018-12-07T21:24:47.710Z,42.90
2018-12-07T21:27:17.516Z,42.72
2018-12-07T21:29:57.949Z,42.68
2018-12-07T21:32:27.416Z,42.38
2018-12-07T21:35:02.795Z,43.06
2018-12-07T21:37:32.759Z,42.88
2018-12-07T21:40:24.354Z,42.54
2018-12-07T21:42:53.938Z,42.40
2018-12-07T21:45:23.513Z,42.66
2018-12-07T21:48:12.382Z,42.20
2018-12-07T21:50:43.870Z,42.55
2018-12-07T21:53:13.446Z,42.34
2018-12-07T21:55:43.269Z,42.45
2018-12-07T21:58:12.983Z,42.23
2018-12-07T22:00:42.498Z,42.20
2018-12-07T22:03:11.959Z,42.66
2018-12-07T22:05:41.539Z,42.53
2018-12-07T22:08:11.334Z,42.66
2018-12-07T22:10:41.058Z,42.90
2018-12-07T22:13:11.936Z,42.36
2018-12-07T22:15:41.504Z,42.55
2018-12-07T22:18:11.070Z,42.63
2018-12-07T22:20:41.034Z,42.92
2018-12-07T22:23:10.701Z,42.74
2018-12-07T22:25:40.407Z,42.27
2018-12-07T22:28:10.109Z,42.53
2018-12-07T22:30:39.859Z,42.63
2018-12-07T22:33:09.688Z,42.54
2018-12-07T22:35:39.536Z,42.50
2018-12-07T22:38:09.340Z,42.17
2018-12-07T22:40:39.135Z,42.48
2018-12-07T22:43:08.769Z,42.78
2018-12-07T22:45:39.276Z,42.45
2018-12-07T22:48:08.717Z,42.87
2018-12-07T22:50:38.572Z,42.56
2018-12-07T22:53:08.024Z,42.87
2018-12-07T22:55:37.444Z,42.65
2018-12-07T22:58:07.253Z,42.50
2018-12-07T23:00:38.754Z,42.32
2018-12-07T23:03:10.234Z,42.58
2018-12-07T23:05:39.672Z,42.50
2018-12-07T23:08:09.117Z,42.59
2018-12-07T23:10:38.528Z,42.51
2018-12-07T23:13:08.005Z,42.30
2018-12-07T23:15:37.424Z,42.40
2018-12-07T23:18:06.855Z,42.27
2018-12-07T23:20:36.269Z,42.30
2018-12-07T23:23:05.725Z,42.92
2018-12-07T23:25:35.142Z,42.35
2018-12-07T23:28:04.576Z,42.29
2018-12-07T23:30:34.021Z,42.37
2018-12-07T23:33:03.470Z,42.57
2018-12-07T23:35:32.909Z,42.58
2018-12-07T23:38:02.366Z,42.38
2018-12-07T23:40:31.821Z,42.28
2018-12-07T23:43:02.438Z,42.42
2018-12-07T23:45:31.888Z,42.37
2018-12-07T23:48:01.445Z,42.58
2018-12-07T23:50:31.723Z,42.41
2018-12-07T23:53:01.197Z,42.57
2018-12-07T23:55:30.612Z,42.51
2018-12-07T23:58:00.026Z,42.57
